sensor_id;sensor_type;location;lat;lon;timestamp;P1;durP1;ratioP1;P2;durP2;ratioP2
63034;SDS011;59750;53.356;-1.458;2022-11-20T10:25:19;9.52;;;3.13;;
63034;SDS011;59750;53.356;-1.458;2022-11-20T10:30:22;10.73;;;3.08;;
63034;SDS011;59750;53.356;-1.458;2022-11-20T10:32:54;9.15;;;2.33;;
63034;SDS011;59750;53.356;-1.458;2022-11-20T10:35:32;8.48;;;2.95;;
63034;SDS011;59750;53.356;-1.458;2022-11-20T10:38:09;11.57;;;3.22;;
63034;SDS011;59750;53.356;-1.458;2022-11-20T10:40:44;6.43;;;2.42;;
63034;SDS011;59750;53.356;-1.458;2022-11-20T10:43:16;6.93;;;2.70;;
63034;SDS011;59750;53.356;-1.458;2022-11-20T10:45:53;7.60;;;2.65;;
63034;SDS011;59750;53.356;-1.458;2022-11-20T10:48:27;8.80;;;3.15;;
63034;SDS011;59750;53.356;-1.458;2022-11-20T10:53:54;10.18;;;2.20;;
63034;SDS011;59750;53.356;-1.458;2022-11-20T10:56:45;8.43;;;2.40;;
63034;SDS011;59750;53.356;-1.458;2022-11-20T11:05:05;5.93;;;2.85;;
63034;SDS011;59750;53.356;-1.458;2022-11-20T11:07:40;10.07;;;2.45;;
63034;SDS011;59750;53.356;-1.458;2022-11-20T11:10:14;7.20;;;2.35;;
63034;SDS011;59750;53.356;-1.458;2022-11-20T11:12:59;7.67;;;2.07;;
63034;SDS011;59750;53.356;-1.458;2022-11-20T11:17:51;8.18;;;2.38;;
63034;SDS011;59750;53.356;-1.458;2022-11-20T11:20:19;8.55;;;2.40;;
63034;SDS011;59750;53.356;-1.458;2022-11-20T11:22:51;7.63;;;2.30;;
63034;SDS011;59750;53.356;-1.458;2022-11-20T11:25:24;8.95;;;2.40;;
63034;SDS011;59750;53.356;-1.458;2022-11-20T11:27:54;9.55;;;2.90;;
63034;SDS011;59750;53.356;-1.458;2022-11-20T11:30:22;8.80;;;3.15;;
63034;SDS011;59750;53.356;-1.458;2022-11-20T11:32:49;8.65;;;2.30;;
63034;SDS011;59750;53.356;-1.458;2022-11-20T11:35:23;7.82;;;2.72;;
63034;SDS011;59750;53.356;-1.458;2022-11-20T11:37:53;11.98;;;4.55;;
63034;SDS011;59750;53.356;-1.458;2022-11-20T11:40:29;6.57;;;2.92;;
63034;SDS011;59750;53.356;-1.458;2022-11-20T11:42:59;6.80;;;2.33;;
63034;SDS011;59750;53.356;-1.458;2022-11-20T11:45:54;11.52;;;2.95;;
63034;SDS011;59750;53.356;-1.458;2022-11-20T11:48:21;10.38;;;3.63;;
63034;SDS011;59750;53.356;-1.458;2022-11-20T11:50:48;12.52;;;3.03;;
63034;SDS011;59750;53.356;-1.458;2022-11-20T11:53:17;8.13;;;2.72;;
63034;SDS011;59750;53.356;-1.458;2022-11-20T12:04:15;10.43;;;2.60;;
63034;SDS011;59750;53.356;-1.458;2022-11-20T12:06:50;9.55;;;2.75;;
63034;SDS011;59750;53.356;-1.458;2022-11-20T12:09:24;7.20;;;2.30;;
63034;SDS011;59750;53.356;-1.458;2022-11-20T12:11:54;5.00;;;1.95;;
63034;SDS011;59750;53.356;-1.458;2022-11-20T12:14:30;10.93;;;2.40;;
63034;SDS011;59750;53.356;-1.458;2022-11-20T12:17:01;11.10;;;2.60;;
63034;SDS011;59750;53.356;-1.458;2022-11-20T12:19:29;7.97;;;2.20;;
63034;SDS011;59750;53.356;-1.458;2022-11-20T12:27:05;7.57;;;2.50;;
63034;SDS011;59750;53.356;-1.458;2022-11-20T12:52:56;13.88;;;2.78;;
63034;SDS011;59750;53.356;-1.458;2022-11-20T12:55:31;5.22;;;2.22;;
63034;SDS011;59750;53.356;-1.458;2022-11-20T12:58:03;6.60;;;2.45;;
63034;SDS011;59750;53.356;-1.458;2022-11-20T13:00:31;14.13;;;3.20;;
63034;SDS011;59750;53.356;-1.458;2022-11-20T13:05:37;9.90;;;2.33;;
63034;SDS011;59750;53.356;-1.458;2022-11-20T13:08:27;11.38;;;2.55;;
63034;SDS011;59750;53.356;-1.458;2022-11-20T13:16:37;12.18;;;2.88;;
63034;SDS011;59750;53.356;-1.458;2022-11-20T13:19:11;9.02;;;2.33;;
63034;SDS011;59750;53.356;-1.458;2022-11-20T13:21:42;10.50;;;2.42;;
63034;SDS011;59750;53.356;-1.458;2022-11-20T13:27:02;9.10;;;2.08;;
63034;SDS011;59750;53.356;-1.458;2022-11-20T13:29:30;12.55;;;2.83;;
63034;SDS011;59750;53.356;-1.458;2022-11-20T13:32:04;10.68;;;2.22;;
63034;SDS011;59750;53.356;-1.458;2022-11-20T13:34:39;11.93;;;2.38;;
63034;SDS011;59750;53.356;-1.458;2022-11-20T13:42:39;13.02;;;3.17;;
63034;SDS011;59750;53.356;-1.458;2022-11-20T13:45:21;11.88;;;2.42;;
63034;SDS011;59750;53.356;-1.458;2022-11-20T13:47:51;8.65;;;2.85;;
63034;SDS011;59750;53.356;-1.458;2022-11-20T13:50:22;11.55;;;2.80;;
63034;SDS011;59750;53.356;-1.458;2022-11-20T13:58:40;8.07;;;3.47;;
63034;SDS011;59750;53.356;-1.458;2022-11-20T14:01:21;17.15;;;6.85;;
63034;SDS011;59750;53.356;-1.458;2022-11-20T14:03:51;8.45;;;4.00;;
63034;SDS011;59750;53.356;-1.458;2022-11-20T14:09:12;18.30;;;4.33;;
63034;SDS011;59750;53.356;-1.458;2022-11-20T14:11:50;12.50;;;3.45;;
63034;SDS011;59750;53.356;-1.458;2022-11-20T14:14:17;11.18;;;2.40;;
63034;SDS011;59750;53.356;-1.458;2022-11-20T14:16:46;12.18;;;4.50;;
63034;SDS011;59750;53.356;-1.458;2022-11-20T14:21:49;14.60;;;3.60;;
63034;SDS011;59750;53.356;-1.458;2022-11-20T14:24:21;14.45;;;3.80;;
63034;SDS011;59750;53.356;-1.458;2022-11-20T14:26:49;13.10;;;3.95;;
63034;SDS011;59750;53.356;-1.458;2022-11-20T14:29:19;8.95;;;3.67;;
63034;SDS011;59750;53.356;-1.458;2022-11-20T14:31:51;10.75;;;4.70;;
63034;SDS011;59750;53.356;-1.458;2022-11-20T14:34:23;13.93;;;3.50;;
63034;SDS011;59750;53.356;-1.458;2022-11-20T14:36:52;10.82;;;3.67;;
63034;SDS011;59750;53.356;-1.458;2022-11-20T14:39:24;15.60;;;4.03;;
63034;SDS011;59750;53.356;-1.458;2022-11-20T14:41:59;17.75;;;3.85;;
63034;SDS011;59750;53.356;-1.458;2022-11-20T14:44:26;12.70;;;3.92;;
63034;SDS011;59750;53.356;-1.458;2022-11-20T14:46:57;9.15;;;3.67;;
63034;SDS011;59750;53.356;-1.458;2022-11-20T14:49:25;10.75;;;4.32;;
63034;SDS011;59750;53.356;-1.458;2022-11-20T14:51:59;10.05;;;3.55;;
63034;SDS011;59750;53.356;-1.458;2022-11-20T14:54:28;8.75;;;3.55;;
63034;SDS011;59750;53.356;-1.458;2022-11-20T14:56:57;9.50;;;2.58;;
63034;SDS011;59750;53.356;-1.458;2022-11-20T14:59:26;11.73;;;2.85;;
63034;SDS011;59750;53.356;-1.458;2022-11-20T15:01:59;8.15;;;3.20;;
63034;SDS011;59750;53.356;-1.458;2022-11-20T15:04:29;9.80;;;2.42;;
63034;SDS011;59750;53.356;-1.458;2022-11-20T15:06:56;6.85;;;2.22;;
63034;SDS011;59750;53.356;-1.458;2022-11-20T15:09:24;11.65;;;3.25;;
63034;SDS011;59750;53.356;-1.458;2022-11-20T15:11:53;9.50;;;2.50;;
63034;SDS011;59750;53.356;-1.458;2022-11-20T15:14:23;10.98;;;3.17;;
63034;SDS011;59750;53.356;-1.458;2022-11-20T15:16:50;5.75;;;2.33;;
63034;SDS011;59750;53.356;-1.458;2022-11-20T15:19:17;10.75;;;4.47;;
63034;SDS011;59750;53.356;-1.458;2022-11-20T15:21:47;16.10;;;4.30;;
63034;SDS011;59750;53.356;-1.458;2022-11-20T15:24:14;8.27;;;4.70;;
63034;SDS011;59750;53.356;-1.458;2022-11-20T15:26:40;13.00;;;4.95;;
63034;SDS011;59750;53.356;-1.458;2022-11-20T15:29:08;9.55;;;3.75;;
63034;SDS011;59750;53.356;-1.458;2022-11-20T15:31:37;12.20;;;4.40;;
63034;SDS011;59750;53.356;-1.458;2022-11-20T15:34:09;9.77;;;4.57;;
63034;SDS011;59750;53.356;-1.458;2022-11-20T15:36:39;15.30;;;4.57;;
63034;SDS011;59750;53.356;-1.458;2022-11-20T15:39:06;26.23;;;15.90;;
63034;SDS011;59750;53.356;-1.458;2022-11-20T15:41:34;53.60;;;31.45;;
63034;SDS011;59750;53.356;-1.458;2022-11-20T15:44:01;28.02;;;17.17;;
63034;SDS011;59750;53.356;-1.458;2022-11-20T15:46:29;9.50;;;3.22;;
63034;SDS011;59750;53.356;-1.458;2022-11-20T15:49:03;7.07;;;2.88;;
63034;SDS011;59750;53.356;-1.458;2022-11-20T15:51:35;23.80;;;18.45;;
63034;SDS011;59750;53.356;-1.458;2022-11-20T15:54:09;23.95;;;17.52;;
63034;SDS011;59750;53.356;-1.458;2022-11-20T15:56:38;13.68;;;10.38;;
63034;SDS011;59750;53.356;-1.458;2022-11-20T15:59:08;16.55;;;10.68;;
63034;SDS011;59750;53.356;-1.458;2022-11-20T16:01:34;12.63;;;6.90;;
63034;SDS011;59750;53.356;-1.458;2022-11-20T16:04:01;11.88;;;6.88;;
63034;SDS011;59750;53.356;-1.458;2022-11-20T16:06:27;18.13;;;16.08;;
63034;SDS011;59750;53.356;-1.458;2022-11-20T16:08:54;24.40;;;16.33;;
63034;SDS011;59750;53.356;-1.458;2022-11-20T16:11:21;27.55;;;21.33;;
63034;SDS011;59750;53.356;-1.458;2022-11-20T16:13:48;13.30;;;8.98;;
63034;SDS011;59750;53.356;-1.458;2022-11-20T16:16:33;22.80;;;12.77;;
63034;SDS011;59750;53.356;-1.458;2022-11-20T16:19:02;19.83;;;14.65;;
63034;SDS011;59750;53.356;-1.458;2022-11-20T16:21:29;13.27;;;9.20;;
63034;SDS011;59750;53.356;-1.458;2022-11-20T16:23:58;18.02;;;16.20;;
63034;SDS011;59750;53.356;-1.458;2022-11-20T16:26:25;7.85;;;6.80;;
63034;SDS011;59750;53.356;-1.458;2022-11-20T16:28:51;10.85;;;6.50;;
63034;SDS011;59750;53.356;-1.458;2022-11-20T16:31:17;5.65;;;5.07;;
63034;SDS011;59750;53.356;-1.458;2022-11-20T16:33:50;9.75;;;8.43;;
63034;SDS011;59750;53.356;-1.458;2022-11-20T16:36:18;9.07;;;6.63;;
63034;SDS011;59750;53.356;-1.458;2022-11-20T16:38:45;6.03;;;5.50;;
63034;SDS011;59750;53.356;-1.458;2022-11-20T16:41:12;22.90;;;15.77;;
63034;SDS011;59750;53.356;-1.458;2022-11-20T16:43:46;3.55;;;2.72;;
63034;SDS011;59750;53.356;-1.458;2022-11-20T16:46:14;8.30;;;4.95;;
63034;SDS011;59750;53.356;-1.458;2022-11-20T16:48:41;11.02;;;6.45;;
63034;SDS011;59750;53.356;-1.458;2022-11-20T16:51:08;7.15;;;5.15;;
63034;SDS011;59750;53.356;-1.458;2022-11-20T16:53:36;10.63;;;6.72;;
63034;SDS011;59750;53.356;-1.458;2022-11-20T16:58:50;6.53;;;5.88;;
63034;SDS011;59750;53.356;-1.458;2022-11-20T17:01:19;5.82;;;4.07;;
63034;SDS011;59750;53.356;-1.458;2022-11-20T17:03:52;6.03;;;3.90;;
63034;SDS011;59750;53.356;-1.458;2022-11-20T17:06:24;5.18;;;3.50;;
63034;SDS011;59750;53.356;-1.458;2022-11-20T17:08:53;7.78;;;5.03;;
63034;SDS011;59750;53.356;-1.458;2022-11-20T17:11:22;5.65;;;4.25;;
63034;SDS011;59750;53.356;-1.458;2022-11-20T17:13:49;5.78;;;4.00;;
63034;SDS011;59750;53.356;-1.458;2022-11-20T17:16:17;6.50;;;4.30;;
63034;SDS011;59750;53.356;-1.458;2022-11-20T17:18:45;7.43;;;4.45;;
63034;SDS011;59750;53.356;-1.458;2022-11-20T17:21:11;10.90;;;6.53;;
63034;SDS011;59750;53.356;-1.458;2022-11-20T17:23:40;10.55;;;6.68;;
63034;SDS011;59750;53.356;-1.458;2022-11-20T17:26:08;7.57;;;4.80;;
63034;SDS011;59750;53.356;-1.458;2022-11-20T17:28:36;7.15;;;4.80;;
63034;SDS011;59750;53.356;-1.458;2022-11-20T17:31:05;5.20;;;3.63;;
63034;SDS011;59750;53.356;-1.458;2022-11-20T17:33:34;5.28;;;3.20;;
63034;SDS011;59750;53.356;-1.458;2022-11-20T17:36:02;3.55;;;2.80;;
63034;SDS011;59750;53.356;-1.458;2022-11-20T17:38:29;3.88;;;2.75;;
63034;SDS011;59750;53.356;-1.458;2022-11-20T17:43:43;4.40;;;3.20;;
63034;SDS011;59750;53.356;-1.458;2022-11-20T17:46:13;6.13;;;3.05;;
63034;SDS011;59750;53.356;-1.458;2022-11-20T17:48:41;4.63;;;3.00;;
63034;SDS011;59750;53.356;-1.458;2022-11-20T17:51:09;4.78;;;2.85;;
63034;SDS011;59750;53.356;-1.458;2022-11-20T17:53:38;3.45;;;2.33;;
63034;SDS011;59750;53.356;-1.458;2022-11-20T17:56:06;3.45;;;1.92;;
63034;SDS011;59750;53.356;-1.458;2022-11-20T17:58:51;3.65;;;2.45;;
63034;SDS011;59750;53.356;-1.458;2022-11-20T18:01:17;3.28;;;1.92;;
63034;SDS011;59750;53.356;-1.458;2022-11-20T18:03:44;5.95;;;2.53;;
63034;SDS011;59750;53.356;-1.458;2022-11-20T18:06:12;4.75;;;2.38;;
63034;SDS011;59750;53.356;-1.458;2022-11-20T18:08:40;4.85;;;2.17;;
63034;SDS011;59750;53.356;-1.458;2022-11-20T18:11:08;2.80;;;1.83;;
63034;SDS011;59750;53.356;-1.458;2022-11-20T18:13:40;6.40;;;3.33;;
63034;SDS011;59750;53.356;-1.458;2022-11-20T18:16:25;3.83;;;2.53;;
63034;SDS011;59750;53.356;-1.458;2022-11-20T18:18:54;5.35;;;3.20;;
63034;SDS011;59750;53.356;-1.458;2022-11-20T18:21:23;5.15;;;2.78;;
63034;SDS011;59750;53.356;-1.458;2022-11-20T18:23:50;6.35;;;3.13;;
63034;SDS011;59750;53.356;-1.458;2022-11-20T18:26:16;2.72;;;2.42;;
63034;SDS011;59750;53.356;-1.458;2022-11-20T18:28:43;5.07;;;2.83;;
63034;SDS011;59750;53.356;-1.458;2022-11-20T18:31:10;5.88;;;2.78;;
63034;SDS011;59750;53.356;-1.458;2022-11-20T18:33:36;4.30;;;2.92;;
63034;SDS011;59750;53.356;-1.458;2022-11-20T18:38:49;6.75;;;3.40;;
63034;SDS011;59750;53.356;-1.458;2022-11-20T18:41:19;4.75;;;2.15;;
63034;SDS011;59750;53.356;-1.458;2022-11-20T18:44:10;3.10;;;2.50;;
63034;SDS011;59750;53.356;-1.458;2022-11-20T18:47:02;3.72;;;2.30;;
63034;SDS011;59750;53.356;-1.458;2022-11-20T18:49:30;3.58;;;2.22;;
63034;SDS011;59750;53.356;-1.458;2022-11-20T18:51:56;4.88;;;1.95;;
63034;SDS011;59750;53.356;-1.458;2022-11-20T18:54:22;2.67;;;1.88;;
63034;SDS011;59750;53.356;-1.458;2022-11-20T18:56:49;3.35;;;1.85;;
63034;SDS011;59750;53.356;-1.458;2022-11-20T18:59:16;5.32;;;2.33;;
63034;SDS011;59750;53.356;-1.458;2022-11-20T19:01:44;5.43;;;2.00;;
63034;SDS011;59750;53.356;-1.458;2022-11-20T19:04:12;4.05;;;2.35;;
63034;SDS011;59750;53.356;-1.458;2022-11-20T19:06:40;4.93;;;2.67;;
63034;SDS011;59750;53.356;-1.458;2022-11-20T19:09:07;4.80;;;2.35;;
63034;SDS011;59750;53.356;-1.458;2022-11-20T19:11:36;4.82;;;2.35;;
63034;SDS011;59750;53.356;-1.458;2022-11-20T19:14:03;5.50;;;2.55;;
63034;SDS011;59750;53.356;-1.458;2022-11-20T19:16:30;5.78;;;2.78;;
63034;SDS011;59750;53.356;-1.458;2022-11-20T19:18:58;6.93;;;2.83;;
63034;SDS011;59750;53.356;-1.458;2022-11-20T19:21:26;2.85;;;2.28;;
63034;SDS011;59750;53.356;-1.458;2022-11-20T19:23:53;7.05;;;2.90;;
63034;SDS011;59750;53.356;-1.458;2022-11-20T19:26:21;6.22;;;2.20;;
63034;SDS011;59750;53.356;-1.458;2022-11-20T19:28:47;3.67;;;2.72;;
63034;SDS011;59750;53.356;-1.458;2022-11-20T19:31:18;4.20;;;2.80;;
63034;SDS011;59750;53.356;-1.458;2022-11-20T19:33:47;7.47;;;3.08;;
63034;SDS011;59750;53.356;-1.458;2022-11-20T19:36:18;5.85;;;2.97;;
63034;SDS011;59750;53.356;-1.458;2022-11-20T19:38:47;6.53;;;3.65;;
63034;SDS011;59750;53.356;-1.458;2022-11-20T19:41:16;6.88;;;2.95;;
63034;SDS011;59750;53.356;-1.458;2022-11-20T19:43:44;5.97;;;2.85;;
63034;SDS011;59750;53.356;-1.458;2022-11-20T19:46:16;4.40;;;3.13;;
63034;SDS011;59750;53.356;-1.458;2022-11-20T19:48:43;8.38;;;3.42;;
63034;SDS011;59750;53.356;-1.458;2022-11-20T19:51:12;7.63;;;4.28;;
63034;SDS011;59750;53.356;-1.458;2022-11-20T19:53:41;8.13;;;3.95;;
63034;SDS011;59750;53.356;-1.458;2022-11-20T19:56:08;9.23;;;4.82;;
63034;SDS011;59750;53.356;-1.458;2022-11-20T19:58:38;7.30;;;4.07;;
63034;SDS011;59750;53.356;-1.458;2022-11-20T20:03:50;6.95;;;4.80;;
63034;SDS011;59750;53.356;-1.458;2022-11-20T20:06:19;9.02;;;4.85;;
63034;SDS011;59750;53.356;-1.458;2022-11-20T20:08:54;7.20;;;4.85;;
63034;SDS011;59750;53.356;-1.458;2022-11-20T20:11:21;7.90;;;5.25;;
63034;SDS011;59750;53.356;-1.458;2022-11-20T20:13:49;8.35;;;5.45;;
63034;SDS011;59750;53.356;-1.458;2022-11-20T20:16:17;8.50;;;5.97;;
63034;SDS011;59750;53.356;-1.458;2022-11-20T20:18:48;6.28;;;5.40;;
63034;SDS011;59750;53.356;-1.458;2022-11-20T20:21:18;12.30;;;6.50;;
63034;SDS011;59750;53.356;-1.458;2022-11-20T20:23:44;8.07;;;5.60;;
63034;SDS011;59750;53.356;-1.458;2022-11-20T20:26:18;9.40;;;6.18;;
63034;SDS011;59750;53.356;-1.458;2022-11-20T20:28:44;10.63;;;6.00;;
63034;SDS011;59750;53.356;-1.458;2022-11-20T20:31:11;7.65;;;5.97;;
63034;SDS011;59750;53.356;-1.458;2022-11-20T20:33:40;11.10;;;6.25;;
63034;SDS011;59750;53.356;-1.458;2022-11-20T20:36:08;11.15;;;6.68;;
63034;SDS011;59750;53.356;-1.458;2022-11-20T20:38:35;10.25;;;6.85;;
63034;SDS011;59750;53.356;-1.458;2022-11-20T20:41:02;9.77;;;6.72;;
63034;SDS011;59750;53.356;-1.458;2022-11-20T20:43:28;12.48;;;7.65;;
63034;SDS011;59750;53.356;-1.458;2022-11-20T20:45:55;12.68;;;8.38;;
63034;SDS011;59750;53.356;-1.458;2022-11-20T20:48:22;12.88;;;8.48;;
63034;SDS011;59750;53.356;-1.458;2022-11-20T20:50:53;11.38;;;8.43;;
63034;SDS011;59750;53.356;-1.458;2022-11-20T20:53:21;13.30;;;8.57;;
63034;SDS011;59750;53.356;-1.458;2022-11-20T20:55:57;15.43;;;8.45;;
63034;SDS011;59750;53.356;-1.458;2022-11-20T20:58:25;12.95;;;6.82;;
63034;SDS011;59750;53.356;-1.458;2022-11-20T21:00:52;12.30;;;7.65;;
63034;SDS011;59750;53.356;-1.458;2022-11-20T21:03:19;11.95;;;7.97;;
63034;SDS011;59750;53.356;-1.458;2022-11-20T21:05:46;14.45;;;8.10;;
63034;SDS011;59750;53.356;-1.458;2022-11-20T21:08:21;14.50;;;7.78;;
63034;SDS011;59750;53.356;-1.458;2022-11-20T21:10:49;16.73;;;8.35;;
63034;SDS011;59750;53.356;-1.458;2022-11-20T21:13:18;15.63;;;7.53;;
63034;SDS011;59750;53.356;-1.458;2022-11-20T21:15:46;12.75;;;8.43;;
63034;SDS011;59750;53.356;-1.458;2022-11-20T21:18:14;15.00;;;9.10;;
63034;SDS011;59750;53.356;-1.458;2022-11-20T21:20:42;13.23;;;8.10;;
63034;SDS011;59750;53.356;-1.458;2022-11-20T21:23:28;12.25;;;8.38;;
63034;SDS011;59750;53.356;-1.458;2022-11-20T21:25:54;13.02;;;7.95;;
63034;SDS011;59750;53.356;-1.458;2022-11-20T21:28:21;14.52;;;8.68;;
63034;SDS011;59750;53.356;-1.458;2022-11-20T21:30:47;13.57;;;8.07;;
63034;SDS011;59750;53.356;-1.458;2022-11-20T21:33:13;11.63;;;8.02;;
63034;SDS011;59750;53.356;-1.458;2022-11-20T21:35:39;12.52;;;7.40;;
63034;SDS011;59750;53.356;-1.458;2022-11-20T21:38:05;11.63;;;7.82;;
63034;SDS011;59750;53.356;-1.458;2022-11-20T21:40:31;12.85;;;6.93;;
63034;SDS011;59750;53.356;-1.458;2022-11-20T21:42:59;12.48;;;7.10;;
63034;SDS011;59750;53.356;-1.458;2022-11-20T21:45:38;11.40;;;6.40;;
63034;SDS011;59750;53.356;-1.458;2022-11-20T21:48:14;11.85;;;6.97;;
63034;SDS011;59750;53.356;-1.458;2022-11-20T21:50:53;10.88;;;6.35;;
63034;SDS011;59750;53.356;-1.458;2022-11-20T21:53:31;12.00;;;6.32;;
63034;SDS011;59750;53.356;-1.458;2022-11-20T21:55:59;13.18;;;7.13;;
63034;SDS011;59750;53.356;-1.458;2022-11-20T21:58:40;10.20;;;6.47;;
63034;SDS011;59750;53.356;-1.458;2022-11-20T22:01:17;13.60;;;6.78;;
63034;SDS011;59750;53.356;-1.458;2022-11-20T22:03:56;9.25;;;6.25;;
63034;SDS011;59750;53.356;-1.458;2022-11-20T22:06:34;9.43;;;6.15;;
63034;SDS011;59750;53.356;-1.458;2022-11-20T22:09:08;13.27;;;6.20;;
63034;SDS011;59750;53.356;-1.458;2022-11-20T22:11:40;8.02;;;5.45;;
63034;SDS011;59750;53.356;-1.458;2022-11-20T22:14:07;8.50;;;4.80;;
63034;SDS011;59750;53.356;-1.458;2022-11-20T22:16:53;8.02;;;5.15;;
63034;SDS011;59750;53.356;-1.458;2022-11-20T22:19:19;7.50;;;4.93;;
63034;SDS011;59750;53.356;-1.458;2022-11-20T22:21:46;10.55;;;4.70;;
63034;SDS011;59750;53.356;-1.458;2022-11-20T22:24:14;6.70;;;4.75;;
63034;SDS011;59750;53.356;-1.458;2022-11-20T22:26:41;9.65;;;4.93;;
63034;SDS011;59750;53.356;-1.458;2022-11-20T22:29:12;8.18;;;5.05;;
63034;SDS011;59750;53.356;-1.458;2022-11-20T22:31:42;13.35;;;5.43;;
63034;SDS011;59750;53.356;-1.458;2022-11-20T22:34:11;7.45;;;5.05;;
63034;SDS011;59750;53.356;-1.458;2022-11-20T22:36:38;6.03;;;3.83;;
63034;SDS011;59750;53.356;-1.458;2022-11-20T22:39:06;7.18;;;4.70;;
63034;SDS011;59750;53.356;-1.458;2022-11-20T22:41:32;6.50;;;4.78;;
63034;SDS011;59750;53.356;-1.458;2022-11-20T22:44:01;8.25;;;4.20;;
63034;SDS011;59750;53.356;-1.458;2022-11-20T22:46:31;7.25;;;5.05;;
63034;SDS011;59750;53.356;-1.458;2022-11-20T22:48:59;9.48;;;4.43;;
63034;SDS011;59750;53.356;-1.458;2022-11-20T22:51:31;6.00;;;4.30;;
63034;SDS011;59750;53.356;-1.458;2022-11-20T22:53:59;8.05;;;4.28;;
63034;SDS011;59750;53.356;-1.458;2022-11-20T22:56:25;8.73;;;4.53;;
63034;SDS011;59750;53.356;-1.458;2022-11-20T22:58:52;4.90;;;3.85;;
63034;SDS011;59750;53.356;-1.458;2022-11-20T23:01:22;9.18;;;5.03;;
63034;SDS011;59750;53.356;-1.458;2022-11-20T23:03:53;5.85;;;4.40;;
63034;SDS011;59750;53.356;-1.458;2022-11-20T23:06:20;6.03;;;3.75;;
63034;SDS011;59750;53.356;-1.458;2022-11-20T23:08:48;5.57;;;4.07;;
63034;SDS011;59750;53.356;-1.458;2022-11-20T23:11:16;7.05;;;3.90;;
63034;SDS011;59750;53.356;-1.458;2022-11-20T23:13:44;6.85;;;3.80;;
63034;SDS011;59750;53.356;-1.458;2022-11-20T23:16:11;5.90;;;4.13;;
63034;SDS011;59750;53.356;-1.458;2022-11-20T23:18:40;10.20;;;4.22;;
63034;SDS011;59750;53.356;-1.458;2022-11-20T23:21:08;6.85;;;4.43;;
63034;SDS011;59750;53.356;-1.458;2022-11-20T23:23:37;8.13;;;4.07;;
63034;SDS011;59750;53.356;-1.458;2022-11-20T23:26:07;9.15;;;4.45;;
63034;SDS011;59750;53.356;-1.458;2022-11-20T23:31:04;5.35;;;3.53;;
63034;SDS011;59750;53.356;-1.458;2022-11-20T23:33:31;3.75;;;3.15;;
63034;SDS011;59750;53.356;-1.458;2022-11-20T23:36:00;3.72;;;3.25;;
63034;SDS011;59750;53.356;-1.458;2022-11-20T23:38:26;9.38;;;3.25;;
63034;SDS011;59750;53.356;-1.458;2022-11-20T23:40:52;5.43;;;2.83;;
63034;SDS011;59750;53.356;-1.458;2022-11-20T23:43:19;6.28;;;2.97;;
63034;SDS011;59750;53.356;-1.458;2022-11-20T23:45:48;6.30;;;2.33;;
63034;SDS011;59750;53.356;-1.458;2022-11-20T23:48:18;3.80;;;2.65;;
63034;SDS011;59750;53.356;-1.458;2022-11-20T23:50:45;5.03;;;2.22;;
63034;SDS011;59750;53.356;-1.458;2022-11-20T23:53:12;6.72;;;2.25;;
63034;SDS011;59750;53.356;-1.458;2022-11-20T23:55:39;8.88;;;2.13;;
63034;SDS011;59750;53.356;-1.458;2022-11-20T23:58:09;5.68;;;1.73;;
